sensor_id;sensor_type;location;lat;lon;timestamp;temperature;humidity
40738;DHT22;54759;48.094;-1.628;2023-04-19T00:01:58;21.80;50.90
40738;DHT22;54759;48.094;-1.628;2023-04-19T00:05:00;21.80;50.90
40738;DHT22;54759;48.094;-1.628;2023-04-19T00:08:03;21.30;50.60
40738;DHT22;54759;48.094;-1.628;2023-04-19T00:11:06;21.70;50.80
40738;DHT22;54759;48.094;-1.628;2023-04-19T00:14:08;21.60;50.60
40738;DHT22;54759;48.094;-1.628;2023-04-19T00:17:09;21.70;50.80
40738;DHT22;54759;48.094;-1.628;2023-04-19T00:20:12;21.60;51.00
40738;DHT22;54759;48.094;-1.628;2023-04-19T00:23:14;21.60;50.70
40738;DHT22;54759;48.094;-1.628;2023-04-19T00:26:15;21.60;50.70
40738;DHT22;54759;48.094;-1.628;2023-04-19T00:29:22;21.60;50.70
40738;DHT22;54759;48.094;-1.628;2023-04-19T00:32:24;21.70;50.70
40738;DHT22;54759;48.094;-1.628;2023-04-19T00:35:26;21.60;50.70
40738;DHT22;54759;48.094;-1.628;2023-04-19T00:38:28;21.60;50.70
40738;DHT22;54759;48.094;-1.628;2023-04-19T00:41:29;21.50;50.60
40738;DHT22;54759;48.094;-1.628;2023-04-19T00:44:31;21.40;50.50
40738;DHT22;54759;48.094;-1.628;2023-04-19T00:47:33;21.50;50.70
40738;DHT22;54759;48.094;-1.628;2023-04-19T00:50:35;21.50;50.50
40738;DHT22;54759;48.094;-1.628;2023-04-19T00:53:37;21.60;50.60
40738;DHT22;54759;48.094;-1.628;2023-04-19T00:56:39;21.60;50.70
40738;DHT22;54759;48.094;-1.628;2023-04-19T00:59:41;21.60;50.70
40738;DHT22;54759;48.094;-1.628;2023-04-19T01:02:42;21.60;50.70
40738;DHT22;54759;48.094;-1.628;2023-04-19T01:05:46;21.40;50.70
40738;DHT22;54759;48.094;-1.628;2023-04-19T01:08:48;21.40;50.60
40738;DHT22;54759;48.094;-1.628;2023-04-19T01:11:50;21.60;68.70
40738;DHT22;54759;48.094;-1.628;2023-04-19T01:14:51;21.30;50.60
40738;DHT22;54759;48.094;-1.628;2023-04-19T01:17:52;21.40;51.00
40738;DHT22;54759;48.094;-1.628;2023-04-19T01:20:58;21.60;50.80
40738;DHT22;54759;48.094;-1.628;2023-04-19T01:24:00;21.40;50.70
40738;DHT22;54759;48.094;-1.628;2023-04-19T01:27:01;21.20;50.60
40738;DHT22;54759;48.094;-1.628;2023-04-19T01:30:04;21.50;50.80
40738;DHT22;54759;48.094;-1.628;2023-04-19T01:33:07;21.70;50.20
40738;DHT22;54759;48.094;-1.628;2023-04-19T01:36:10;21.10;50.60
40738;DHT22;54759;48.094;-1.628;2023-04-19T01:39:12;21.60;50.90
40738;DHT22;54759;48.094;-1.628;2023-04-19T01:42:14;21.20;50.70
40738;DHT22;54759;48.094;-1.628;2023-04-19T01:45:15;21.30;50.40
40738;DHT22;54759;48.094;-1.628;2023-04-19T01:48:17;21.50;50.70
40738;DHT22;54759;48.094;-1.628;2023-04-19T01:51:18;21.00;50.50
40738;DHT22;54759;48.094;-1.628;2023-04-19T01:54:22;21.40;50.70
40738;DHT22;54759;48.094;-1.628;2023-04-19T01:57:24;21.30;50.70
40738;DHT22;54759;48.094;-1.628;2023-04-19T02:00:25;21.20;50.60
40738;DHT22;54759;48.094;-1.628;2023-04-19T02:03:26;21.60;51.20
40738;DHT22;54759;48.094;-1.628;2023-04-19T02:06:28;21.30;50.70
40738;DHT22;54759;48.094;-1.628;2023-04-19T02:09:30;21.40;50.70
40738;DHT22;54759;48.094;-1.628;2023-04-19T02:12:39;21.70;51.20
40738;DHT22;54759;48.094;-1.628;2023-04-19T02:15:40;21.50;50.70
40738;DHT22;54759;48.094;-1.628;2023-04-19T02:18:44;21.40;50.60
40738;DHT22;54759;48.094;-1.628;2023-04-19T02:21:46;21.10;50.50
40738;DHT22;54759;48.094;-1.628;2023-04-19T02:24:49;21.30;50.60
40738;DHT22;54759;48.094;-1.628;2023-04-19T02:27:51;21.70;50.90
40738;DHT22;54759;48.094;-1.628;2023-04-19T02:30:53;21.20;50.60
40738;DHT22;54759;48.094;-1.628;2023-04-19T02:33:56;21.40;50.80
40738;DHT22;54759;48.094;-1.628;2023-04-19T02:36:58;21.40;50.70
40738;DHT22;54759;48.094;-1.628;2023-04-19T02:40:03;21.40;51.60
40738;DHT22;54759;48.094;-1.628;2023-04-19T02:43:05;21.00;50.40
40738;DHT22;54759;48.094;-1.628;2023-04-19T02:46:06;21.40;50.60
40738;DHT22;54759;48.094;-1.628;2023-04-19T02:49:08;21.40;51.00
40738;DHT22;54759;48.094;-1.628;2023-04-19T02:52:10;21.00;50.40
40738;DHT22;54759;48.094;-1.628;2023-04-19T02:55:15;21.10;50.50
40738;DHT22;54759;48.094;-1.628;2023-04-19T02:58:18;21.50;50.70
40738;DHT22;54759;48.094;-1.628;2023-04-19T03:01:32;21.00;50.50
40738;DHT22;54759;48.094;-1.628;2023-04-19T03:04:37;21.30;50.60
40738;DHT22;54759;48.094;-1.628;2023-04-19T03:07:40;21.50;50.70
40738;DHT22;54759;48.094;-1.628;2023-04-19T03:10:44;21.10;50.40
40738;DHT22;54759;48.094;-1.628;2023-04-19T03:13:47;21.40;50.60
40738;DHT22;54759;48.094;-1.628;2023-04-19T03:16:49;21.30;50.40
40738;DHT22;54759;48.094;-1.628;2023-04-19T03:19:50;21.10;50.50
40738;DHT22;54759;48.094;-1.628;2023-04-19T03:22:52;21.30;50.90
40738;DHT22;54759;48.094;-1.628;2023-04-19T03:25:55;21.00;50.50
40738;DHT22;54759;48.094;-1.628;2023-04-19T03:29:04;21.40;50.60
40738;DHT22;54759;48.094;-1.628;2023-04-19T03:32:17;21.10;50.50
40738;DHT22;54759;48.094;-1.628;2023-04-19T03:35:18;21.10;50.40
40738;DHT22;54759;48.094;-1.628;2023-04-19T03:38:21;21.10;50.80
40738;DHT22;54759;48.094;-1.628;2023-04-19T03:41:25;21.00;50.40
40738;DHT22;54759;48.094;-1.628;2023-04-19T03:44:45;21.10;50.30
40738;DHT22;54759;48.094;-1.628;2023-04-19T03:47:49;20.80;50.30
40738;DHT22;54759;48.094;-1.628;2023-04-19T03:50:50;21.30;50.60
40738;DHT22;54759;48.094;-1.628;2023-04-19T03:53:53;21.20;50.50
40738;DHT22;54759;48.094;-1.628;2023-04-19T03:56:57;21.30;50.70
40738;DHT22;54759;48.094;-1.628;2023-04-19T03:59:59;21.20;50.60
40738;DHT22;54759;48.094;-1.628;2023-04-19T04:03:05;21.30;50.60
40738;DHT22;54759;48.094;-1.628;2023-04-19T04:06:07;21.10;50.40
40738;DHT22;54759;48.094;-1.628;2023-04-19T04:09:09;20.90;50.50
40738;DHT22;54759;48.094;-1.628;2023-04-19T04:12:11;21.20;50.60
40738;DHT22;54759;48.094;-1.628;2023-04-19T04:15:14;20.70;50.40
40738;DHT22;54759;48.094;-1.628;2023-04-19T04:18:21;21.30;50.60
40738;DHT22;54759;48.094;-1.628;2023-04-19T04:21:23;20.70;50.40
40738;DHT22;54759;48.094;-1.628;2023-04-19T04:24:26;21.20;50.60
40738;DHT22;54759;48.094;-1.628;2023-04-19T04:27:39;21.20;50.50
40738;DHT22;54759;48.094;-1.628;2023-04-19T04:30:46;20.80;50.40
40738;DHT22;54759;48.094;-1.628;2023-04-19T04:33:47;20.90;50.40
40738;DHT22;54759;48.094;-1.628;2023-04-19T04:36:52;20.90;50.50
40738;DHT22;54759;48.094;-1.628;2023-04-19T04:39:56;21.30;50.70
40738;DHT22;54759;48.094;-1.628;2023-04-19T04:42:59;20.80;50.50
40738;DHT22;54759;48.094;-1.628;2023-04-19T04:46:08;20.70;50.40
40738;DHT22;54759;48.094;-1.628;2023-04-19T04:49:14;21.30;50.60
40738;DHT22;54759;48.094;-1.628;2023-04-19T04:52:16;20.70;50.50
40738;DHT22;54759;48.094;-1.628;2023-04-19T04:55:29;20.80;50.40
40738;DHT22;54759;48.094;-1.628;2023-04-19T04:58:31;21.20;50.70
40738;DHT22;54759;48.094;-1.628;2023-04-19T05:01:37;21.20;50.60
40738;DHT22;54759;48.094;-1.628;2023-04-19T05:04:41;21.00;48.30
40738;DHT22;54759;48.094;-1.628;2023-04-19T05:07:44;21.10;50.40
40738;DHT22;54759;48.094;-1.628;2023-04-19T05:10:45;20.80;50.60
40738;DHT22;54759;48.094;-1.628;2023-04-19T05:13:49;21.00;50.60
40738;DHT22;54759;48.094;-1.628;2023-04-19T05:16:50;20.80;50.50
40738;DHT22;54759;48.094;-1.628;2023-04-19T05:19:53;21.30;50.10
40738;DHT22;54759;48.094;-1.628;2023-04-19T05:22:56;20.90;50.50
40738;DHT22;54759;48.094;-1.628;2023-04-19T05:25:58;20.90;50.30
40738;DHT22;54759;48.094;-1.628;2023-04-19T05:29:02;21.30;50.70
40738;DHT22;54759;48.094;-1.628;2023-04-19T05:32:14;21.10;50.60
40738;DHT22;54759;48.094;-1.628;2023-04-19T05:35:21;20.90;50.50
40738;DHT22;54759;48.094;-1.628;2023-04-19T05:38:22;21.20;50.50
40738;DHT22;54759;48.094;-1.628;2023-04-19T05:41:24;21.10;50.50
40738;DHT22;54759;48.094;-1.628;2023-04-19T05:44:26;21.10;50.50
40738;DHT22;54759;48.094;-1.628;2023-04-19T05:47:28;21.20;50.50
40738;DHT22;54759;48.094;-1.628;2023-04-19T05:50:44;21.20;50.40
40738;DHT22;54759;48.094;-1.628;2023-04-19T05:54:04;21.10;50.50
40738;DHT22;54759;48.094;-1.628;2023-04-19T05:57:06;21.10;50.50
40738;DHT22;54759;48.094;-1.628;2023-04-19T06:00:09;20.90;50.30
40738;DHT22;54759;48.094;-1.628;2023-04-19T06:03:14;21.10;50.40
40738;DHT22;54759;48.094;-1.628;2023-04-19T06:06:16;21.20;50.70
40738;DHT22;54759;48.094;-1.628;2023-04-19T06:09:18;20.90;50.50
40738;DHT22;54759;48.094;-1.628;2023-04-19T06:12:20;21.10;50.60
40738;DHT22;54759;48.094;-1.628;2023-04-19T06:15:22;21.20;51.00
40738;DHT22;54759;48.094;-1.628;2023-04-19T06:18:26;21.20;50.70
40738;DHT22;54759;48.094;-1.628;2023-04-19T06:21:29;19.90;50.00
40738;DHT22;54759;48.094;-1.628;2023-04-19T06:24:31;20.90;50.70
40738;DHT22;54759;48.094;-1.628;2023-04-19T06:27:35;21.10;50.90
40738;DHT22;54759;48.094;-1.628;2023-04-19T06:30:37;21.20;51.30
40738;DHT22;54759;48.094;-1.628;2023-04-19T06:33:40;21.20;50.90
40738;DHT22;54759;48.094;-1.628;2023-04-19T06:36:46;21.30;51.40
40738;DHT22;54759;48.094;-1.628;2023-04-19T06:39:47;21.40;51.50
40738;DHT22;54759;48.094;-1.628;2023-04-19T06:42:49;21.80;52.00
40738;DHT22;54759;48.094;-1.628;2023-04-19T06:45:56;21.30;51.20
40738;DHT22;54759;48.094;-1.628;2023-04-19T06:49:00;21.80;51.90
40738;DHT22;54759;48.094;-1.628;2023-04-19T06:52:01;21.40;51.20
40738;DHT22;54759;48.094;-1.628;2023-04-19T06:55:03;22.10;52.10
40738;DHT22;54759;48.094;-1.628;2023-04-19T06:58:05;21.30;51.00
40738;DHT22;54759;48.094;-1.628;2023-04-19T07:01:10;21.50;51.70
40738;DHT22;54759;48.094;-1.628;2023-04-19T07:04:13;21.40;51.60
40738;DHT22;54759;48.094;-1.628;2023-04-19T07:07:15;21.50;51.90
40738;DHT22;54759;48.094;-1.628;2023-04-19T07:10:17;21.30;51.60
40738;DHT22;54759;48.094;-1.628;2023-04-19T07:13:20;21.50;52.00
40738;DHT22;54759;48.094;-1.628;2023-04-19T07:16:22;21.60;51.90
40738;DHT22;54759;48.094;-1.628;2023-04-19T07:19:27;21.70;52.20
40738;DHT22;54759;48.094;-1.628;2023-04-19T07:22:29;21.70;50.80
40738;DHT22;54759;48.094;-1.628;2023-04-19T07:25:30;21.80;51.60
40738;DHT22;54759;48.094;-1.628;2023-04-19T07:28:33;21.60;51.10
40738;DHT22;54759;48.094;-1.628;2023-04-19T07:31:35;21.80;51.30
40738;DHT22;54759;48.094;-1.628;2023-04-19T07:34:36;21.50;74.30
40738;DHT22;54759;48.094;-1.628;2023-04-19T07:37:38;21.80;54.20
40738;DHT22;54759;48.094;-1.628;2023-04-19T07:40:39;22.00;54.40
40738;DHT22;54759;48.094;-1.628;2023-04-19T07:43:41;22.00;52.70
40738;DHT22;54759;48.094;-1.628;2023-04-19T07:46:43;22.00;52.20
40738;DHT22;54759;48.094;-1.628;2023-04-19T07:49:50;22.00;52.70
40738;DHT22;54759;48.094;-1.628;2023-04-19T07:52:52;22.10;52.10
40738;DHT22;54759;48.094;-1.628;2023-04-19T07:55:53;21.90;52.40
40738;DHT22;54759;48.094;-1.628;2023-04-19T07:58:55;22.10;52.40
40738;DHT22;54759;48.094;-1.628;2023-04-19T08:02:09;22.10;52.50
40738;DHT22;54759;48.094;-1.628;2023-04-19T08:05:11;22.10;52.20
40738;DHT22;54759;48.094;-1.628;2023-04-19T08:08:13;21.90;52.30
40738;DHT22;54759;48.094;-1.628;2023-04-19T08:11:15;22.00;52.30
40738;DHT22;54759;48.094;-1.628;2023-04-19T08:14:16;22.60;53.10
40738;DHT22;54759;48.094;-1.628;2023-04-19T08:17:36;22.10;52.30
40738;DHT22;54759;48.094;-1.628;2023-04-19T08:20:44;21.80;52.40
40738;DHT22;54759;48.094;-1.628;2023-04-19T08:23:46;22.00;52.20
40738;DHT22;54759;48.094;-1.628;2023-04-19T08:26:49;22.10;52.40
40738;DHT22;54759;48.094;-1.628;2023-04-19T08:29:54;22.10;52.30
40738;DHT22;54759;48.094;-1.628;2023-04-19T08:32:56;22.30;52.20
40738;DHT22;54759;48.094;-1.628;2023-04-19T08:35:58;22.10;52.30
40738;DHT22;54759;48.094;-1.628;2023-04-19T08:38:59;21.80;52.30
40738;DHT22;54759;48.094;-1.628;2023-04-19T08:42:09;21.70;52.10
40738;DHT22;54759;48.094;-1.628;2023-04-19T08:45:32;22.20;52.50
40738;DHT22;54759;48.094;-1.628;2023-04-19T08:48:34;21.90;52.10
40738;DHT22;54759;48.094;-1.628;2023-04-19T08:51:37;22.30;51.90
40738;DHT22;54759;48.094;-1.628;2023-04-19T08:54:40;22.00;51.70
40738;DHT22;54759;48.094;-1.628;2023-04-19T08:57:45;21.90;51.70
40738;DHT22;54759;48.094;-1.628;2023-04-19T09:00:47;22.00;48.60
40738;DHT22;54759;48.094;-1.628;2023-04-19T09:03:49;22.10;51.80
40738;DHT22;54759;48.094;-1.628;2023-04-19T09:07:07;22.30;51.60
40738;DHT22;54759;48.094;-1.628;2023-04-19T09:10:10;22.30;52.00
40738;DHT22;54759;48.094;-1.628;2023-04-19T09:13:12;22.00;51.40
40738;DHT22;54759;48.094;-1.628;2023-04-19T09:19:44;22.40;51.90
40738;DHT22;54759;48.094;-1.628;2023-04-19T09:23:02;22.00;51.40
40738;DHT22;54759;48.094;-1.628;2023-04-19T09:26:04;22.00;51.40
40738;DHT22;54759;48.094;-1.628;2023-04-19T09:29:24;22.10;51.60
40738;DHT22;54759;48.094;-1.628;2023-04-19T09:32:28;22.20;51.30
40738;DHT22;54759;48.094;-1.628;2023-04-19T09:35:39;22.30;51.70
40738;DHT22;54759;48.094;-1.628;2023-04-19T09:38:46;22.40;51.70
40738;DHT22;54759;48.094;-1.628;2023-04-19T09:41:50;22.10;51.40
40738;DHT22;54759;48.094;-1.628;2023-04-19T09:44:55;22.40;51.40
40738;DHT22;54759;48.094;-1.628;2023-04-19T09:48:17;22.10;51.60
40738;DHT22;54759;48.094;-1.628;2023-04-19T09:51:19;22.20;51.70
40738;DHT22;54759;48.094;-1.628;2023-04-19T09:54:22;22.80;52.40
40738;DHT22;54759;48.094;-1.628;2023-04-19T09:57:25;22.80;52.00
40738;DHT22;54759;48.094;-1.628;2023-04-19T10:00:26;22.50;52.00
40738;DHT22;54759;48.094;-1.628;2023-04-19T10:03:36;22.30;52.00
40738;DHT22;54759;48.094;-1.628;2023-04-19T10:06:39;22.40;52.50
40738;DHT22;54759;48.094;-1.628;2023-04-19T10:09:49;22.20;51.60
40738;DHT22;54759;48.094;-1.628;2023-04-19T10:12:58;22.40;51.90
40738;DHT22;54759;48.094;-1.628;2023-04-19T10:16:21;22.20;51.70
40738;DHT22;54759;48.094;-1.628;2023-04-19T10:19:23;22.20;52.00
40738;DHT22;54759;48.094;-1.628;2023-04-19T10:22:27;22.60;51.80
40738;DHT22;54759;48.094;-1.628;2023-04-19T10:25:29;22.50;52.10
40738;DHT22;54759;48.094;-1.628;2023-04-19T10:28:31;22.10;52.40
40738;DHT22;54759;48.094;-1.628;2023-04-19T10:31:35;22.60;52.10
40738;DHT22;54759;48.094;-1.628;2023-04-19T10:34:38;22.10;51.90
40738;DHT22;54759;48.094;-1.628;2023-04-19T10:37:40;22.60;52.10
40738;DHT22;54759;48.094;-1.628;2023-04-19T10:40:57;22.60;52.10
40738;DHT22;54759;48.094;-1.628;2023-04-19T10:44:11;22.40;52.00
40738;DHT22;54759;48.094;-1.628;2023-04-19T10:47:12;22.20;52.00
40738;DHT22;54759;48.094;-1.628;2023-04-19T10:50:16;22.60;52.20
40738;DHT22;54759;48.094;-1.628;2023-04-19T10:57:01;22.60;51.90
40738;DHT22;54759;48.094;-1.628;2023-04-19T11:00:24;22.70;51.90
40738;DHT22;54759;48.094;-1.628;2023-04-19T11:07:00;22.80;51.90
40738;DHT22;54759;48.094;-1.628;2023-04-19T11:10:02;22.80;51.80
40738;DHT22;54759;48.094;-1.628;2023-04-19T11:13:04;22.80;51.80
40738;DHT22;54759;48.094;-1.628;2023-04-19T11:16:07;22.90;52.00
40738;DHT22;54759;48.094;-1.628;2023-04-19T11:19:08;22.50;51.70
40738;DHT22;54759;48.094;-1.628;2023-04-19T11:22:10;22.40;51.90
40738;DHT22;54759;48.094;-1.628;2023-04-19T11:25:13;22.80;51.70
40738;DHT22;54759;48.094;-1.628;2023-04-19T11:28:17;22.90;51.90
40738;DHT22;54759;48.094;-1.628;2023-04-19T11:31:19;22.70;51.60
40738;DHT22;54759;48.094;-1.628;2023-04-19T11:34:22;22.80;52.00
40738;DHT22;54759;48.094;-1.628;2023-04-19T11:37:31;23.10;51.70
40738;DHT22;54759;48.094;-1.628;2023-04-19T11:40:35;22.70;52.00
40738;DHT22;54759;48.094;-1.628;2023-04-19T11:43:38;23.00;52.10
40738;DHT22;54759;48.094;-1.628;2023-04-19T11:46:40;22.90;53.30
40738;DHT22;54759;48.094;-1.628;2023-04-19T11:49:42;22.90;53.20
40738;DHT22;54759;48.094;-1.628;2023-04-19T11:52:48;22.50;53.00
40738;DHT22;54759;48.094;-1.628;2023-04-19T11:55:50;23.00;53.00
40738;DHT22;54759;48.094;-1.628;2023-04-19T11:58:56;22.60;52.90
40738;DHT22;54759;48.094;-1.628;2023-04-19T12:02:05;22.90;52.90
40738;DHT22;54759;48.094;-1.628;2023-04-19T12:05:09;22.90;53.10
40738;DHT22;54759;48.094;-1.628;2023-04-19T12:08:11;23.10;53.60
40738;DHT22;54759;48.094;-1.628;2023-04-19T12:11:15;22.90;53.70
40738;DHT22;54759;48.094;-1.628;2023-04-19T12:14:21;23.10;53.40
40738;DHT22;54759;48.094;-1.628;2023-04-19T12:17:23;22.90;53.40
40738;DHT22;54759;48.094;-1.628;2023-04-19T12:20:30;23.10;53.50
40738;DHT22;54759;48.094;-1.628;2023-04-19T12:23:35;22.80;53.40
40738;DHT22;54759;48.094;-1.628;2023-04-19T12:26:51;23.30;49.80
40738;DHT22;54759;48.094;-1.628;2023-04-19T12:29:57;23.20;52.80
40738;DHT22;54759;48.094;-1.628;2023-04-19T12:32:58;23.40;52.60
40738;DHT22;54759;48.094;-1.628;2023-04-19T12:36:03;23.30;52.60
40738;DHT22;54759;48.094;-1.628;2023-04-19T12:39:08;23.30;52.40
40738;DHT22;54759;48.094;-1.628;2023-04-19T12:42:13;23.50;53.00
40738;DHT22;54759;48.094;-1.628;2023-04-19T12:45:16;23.50;52.20
40738;DHT22;54759;48.094;-1.628;2023-04-19T12:48:17;23.50;52.10
40738;DHT22;54759;48.094;-1.628;2023-04-19T12:51:19;23.60;51.90
40738;DHT22;54759;48.094;-1.628;2023-04-19T12:54:20;23.30;51.90
40738;DHT22;54759;48.094;-1.628;2023-04-19T12:57:22;23.60;51.60
40738;DHT22;54759;48.094;-1.628;2023-04-19T13:00:25;23.70;51.80
40738;DHT22;54759;48.094;-1.628;2023-04-19T13:03:27;23.70;51.10
40738;DHT22;54759;48.094;-1.628;2023-04-19T13:06:33;23.70;51.50
40738;DHT22;54759;48.094;-1.628;2023-04-19T13:09:38;24.70;51.20
40738;DHT22;54759;48.094;-1.628;2023-04-19T13:12:39;23.60;51.20
40738;DHT22;54759;48.094;-1.628;2023-04-19T13:15:41;23.30;51.00
40738;DHT22;54759;48.094;-1.628;2023-04-19T13:18:44;23.70;51.00
40738;DHT22;54759;48.094;-1.628;2023-04-19T13:21:45;23.60;50.20
40738;DHT22;54759;48.094;-1.628;2023-04-19T13:24:47;23.80;50.70
40738;DHT22;54759;48.094;-1.628;2023-04-19T13:27:49;23.90;50.60
40738;DHT22;54759;48.094;-1.628;2023-04-19T13:30:52;24.00;50.60
40738;DHT22;54759;48.094;-1.628;2023-04-19T13:33:54;23.60;50.00
40738;DHT22;54759;48.094;-1.628;2023-04-19T13:36:55;24.10;50.30
40738;DHT22;54759;48.094;-1.628;2023-04-19T13:39:58;24.20;50.00
40738;DHT22;54759;48.094;-1.628;2023-04-19T13:43:18;24.10;50.10
40738;DHT22;54759;48.094;-1.628;2023-04-19T13:46:21;24.00;49.60
40738;DHT22;54759;48.094;-1.628;2023-04-19T13:49:23;23.70;49.30
40738;DHT22;54759;48.094;-1.628;2023-04-19T13:52:25;24.20;49.90
40738;DHT22;54759;48.094;-1.628;2023-04-19T13:55:26;24.20;43.50
40738;DHT22;54759;48.094;-1.628;2023-04-19T13:58:30;24.10;43.00
40738;DHT22;54759;48.094;-1.628;2023-04-19T14:01:32;24.20;42.80
40738;DHT22;54759;48.094;-1.628;2023-04-19T14:04:35;24.30;42.70
40738;DHT22;54759;48.094;-1.628;2023-04-19T14:07:40;24.30;42.50
40738;DHT22;54759;48.094;-1.628;2023-04-19T14:10:42;24.30;42.40
40738;DHT22;54759;48.094;-1.628;2023-04-19T14:13:43;24.10;42.50
40738;DHT22;54759;48.094;-1.628;2023-04-19T14:16:49;24.30;42.50
40738;DHT22;54759;48.094;-1.628;2023-04-19T14:19:51;24.30;42.40
40738;DHT22;54759;48.094;-1.628;2023-04-19T14:22:54;24.20;42.20
40738;DHT22;54759;48.094;-1.628;2023-04-19T14:25:58;24.30;42.10
40738;DHT22;54759;48.094;-1.628;2023-04-19T14:29:02;24.40;42.00
40738;DHT22;54759;48.094;-1.628;2023-04-19T14:32:04;24.50;41.90
40738;DHT22;54759;48.094;-1.628;2023-04-19T14:35:26;24.50;41.70
40738;DHT22;54759;48.094;-1.628;2023-04-19T14:38:29;24.60;41.70
40738;DHT22;54759;48.094;-1.628;2023-04-19T14:41:31;24.50;41.40
40738;DHT22;54759;48.094;-1.628;2023-04-19T14:44:32;24.40;41.30
40738;DHT22;54759;48.094;-1.628;2023-04-19T14:47:34;24.20;41.20
40738;DHT22;54759;48.094;-1.628;2023-04-19T14:50:36;24.50;41.20
40738;DHT22;54759;48.094;-1.628;2023-04-19T14:53:38;24.50;41.00
40738;DHT22;54759;48.094;-1.628;2023-04-19T14:56:39;24.50;41.00
40738;DHT22;54759;48.094;-1.628;2023-04-19T14:59:41;24.40;40.90
40738;DHT22;54759;48.094;-1.628;2023-04-19T15:02:42;24.50;41.10
40738;DHT22;54759;48.094;-1.628;2023-04-19T15:05:44;24.60;41.10
40738;DHT22;54759;48.094;-1.628;2023-04-19T15:08:46;24.50;41.20
40738;DHT22;54759;48.094;-1.628;2023-04-19T15:11:48;24.50;55.30
40738;DHT22;54759;48.094;-1.628;2023-04-19T15:14:52;24.40;40.90
40738;DHT22;54759;48.094;-1.628;2023-04-19T16:53:50;24.50;40.40
40738;DHT22;54759;48.094;-1.628;2023-04-19T16:56:54;22.80;41.20
40738;DHT22;54759;48.094;-1.628;2023-04-19T16:59:57;22.50;40.80
40738;DHT22;54759;48.094;-1.628;2023-04-19T17:02:59;23.00;42.30
40738;DHT22;54759;48.094;-1.628;2023-04-19T18:51:34;25.00;44.60
40738;DHT22;54759;48.094;-1.628;2023-04-19T19:09:05;22.50;39.10
40738;DHT22;54759;48.094;-1.628;2023-04-19T19:57:46;24.30;40.90
40738;DHT22;54759;48.094;-1.628;2023-04-19T20:01:09;23.90;42.80
40738;DHT22;54759;48.094;-1.628;2023-04-19T20:25:05;24.10;41.20
40738;DHT22;54759;48.094;-1.628;2023-04-19T20:28:08;23.90;41.60
40738;DHT22;54759;48.094;-1.628;2023-04-19T20:34:16;24.00;40.60
40738;DHT22;54759;48.094;-1.628;2023-04-19T20:40:24;24.00;40.80
40738;DHT22;54759;48.094;-1.628;2023-04-19T20:43:27;24.30;42.60
40738;DHT22;54759;48.094;-1.628;2023-04-19T21:08:21;23.80;41.80
40738;DHT22;54759;48.094;-1.628;2023-04-19T21:11:26;23.70;42.60
40738;DHT22;54759;48.094;-1.628;2023-04-19T21:48:01;23.40;42.20
40738;DHT22;54759;48.094;-1.628;2023-04-19T21:51:03;23.70;43.40
